Time;durP1;ratioP1;P1;durP2;ratioP2;P2;SDS_P1;SDS_P2;PMS_P1;PMS_P2;Temp;Humidity;BMP_temperature;BMP_pressure;BME280_temperature;BME280_humidity;BME280_pressure;Samples;Min_cycle;Max_cycle;Signal;HPM_P1;HPM_P2
2022/05/27 04:22:39;;;;;;;11.68;4.53;;;;;;;14.53;85.28;100830.78;5129654;27;20168;-77
2022/05/27 04:25:05;;;;;;;8.85;4.22;;;;;;;14.58;85.43;100831.91;5129868;28;20067;-75
2022/05/27 04:27:32;;;;;;;9.80;5.00;;;;;;;14.62;84.98;100837.75;5129685;28;20043;-76
2022/05/27 04:29:57;;;;;;;9.60;4.05;;;;;;;14.67;84.94;100843.38;5130229;28;20391;-77
2022/05/27 04:32:25;;;;;;;9.23;4.80;;;;;;;14.71;84.45;100839.31;5131531;28;20093;-78
2022/05/27 04:34:52;;;;;;;11.27;5.80;;;;;;;14.76;83.85;100841.44;5129005;28;20047;-77
2022/05/27 04:37:18;;;;;;;8.52;5.00;;;;;;;14.81;83.17;100831.81;5129570;28;20039;-76
2022/05/27 04:39:43;;;;;;;11.18;5.13;;;;;;;14.88;82.81;100843.47;5128267;28;20107;-75
2022/05/27 04:42:09;;;;;;;9.70;4.60;;;;;;;14.89;82.58;100850.47;5129202;28;20047;-76
2022/05/27 04:44:38;;;;;;;10.18;4.45;;;;;;;14.91;82.02;100851.13;5131735;27;20062;-75
2022/05/27 04:47:05;;;;;;;7.15;4.05;;;;;;;14.93;82.44;100846.41;5130991;27;20032;-76
2022/05/27 04:52:14;;;;;;;9.35;4.55;;;;;;;14.97;82.52;100859.44;5127737;28;20089;-75
2022/05/27 04:54:40;;;;;;;9.07;4.53;;;;;;;14.98;82.41;100855.75;5128011;28;20039;-77
2022/05/27 04:57:06;;;;;;;8.50;4.90;;;;;;;14.97;82.72;100857.59;5129400;28;20054;-76
2022/05/27 04:59:35;;;;;;;7.60;4.65;;;;;;;14.98;82.59;100861.09;5128046;28;20405;-76
2022/05/27 05:02:03;;;;;;;6.68;3.83;;;;;;;14.99;82.11;100855.53;5129278;28;20050;-78
2022/05/27 05:04:29;;;;;;;7.55;4.13;;;;;;;14.98;81.74;100861.09;5129325;28;20057;-77
2022/05/27 05:07:00;;;;;;;8.85;4.20;;;;;;;14.99;81.55;100866.28;5128490;28;20043;-77
2022/05/27 05:09:26;;;;;;;8.57;4.43;;;;;;;14.99;81.54;100870.81;5129954;28;20085;-77
2022/05/27 05:11:51;;;;;;;8.30;4.13;;;;;;;15.01;81.63;100866.94;5129699;28;20431;-76
2022/05/27 05:14:17;;;;;;;8.13;3.60;;;;;;;15.06;81.30;100871.72;5130137;28;20114;-76
2022/05/27 05:16:43;;;;;;;8.75;5.35;;;;;;;15.06;81.52;100863.66;5130816;28;20079;-77
2022/05/27 05:19:08;;;;;;;10.63;4.50;;;;;;;15.03;82.14;100866.75;5129717;28;20043;-76
2022/05/27 05:21:33;;;;;;;5.82;3.33;;;;;;;15.03;81.63;100867.56;5127123;28;20078;-76
2022/05/27 05:23:59;;;;;;;5.22;3.67;;;;;;;15.05;81.02;100864.69;5128517;28;20084;-76
2022/05/27 05:26:24;;;;;;;6.18;4.18;;;;;;;15.06;81.26;100863.66;5128845;28;20051;-76
2022/05/27 05:28:50;;;;;;;7.35;3.72;;;;;;;15.02;80.99;100865.09;5129638;28;20047;-77
2022/05/27 05:31:17;;;;;;;6.88;3.92;;;;;;;15.04;80.80;100861.19;5128909;28;20035;-77
2022/05/27 05:33:43;;;;;;;6.95;4.03;;;;;;;15.09;80.27;100857.94;5116722;28;20042;-75
2022/05/27 05:36:09;;;;;;;9.30;3.75;;;;;;;15.11;80.46;100862.09;5113431;28;20036;-75
2022/05/27 05:38:34;;;;;;;12.85;4.97;;;;;;;15.13;80.75;100869.97;5114803;28;20043;-75
2022/05/27 05:41:00;;;;;;;8.13;3.65;;;;;;;15.11;80.76;100864.78;5114709;28;20046;-76
2022/05/27 05:43:25;;;;;;;5.90;4.03;;;;;;;15.10;80.96;100870.34;5114124;28;20035;-76
2022/05/27 05:45:51;;;;;;;8.23;4.25;;;;;;;15.13;80.62;100867.28;5114713;28;20036;-76
2022/05/27 05:48:16;;;;;;;10.85;3.17;;;;;;;15.09;80.08;100871.38;5113596;28;20039;-76
2022/05/27 05:50:42;;;;;;;6.00;3.38;;;;;;;15.14;80.09;100868.97;5113423;28;20131;-77
2022/05/27 05:53:07;;;;;;;8.35;3.45;;;;;;;15.12;79.92;100865.59;5113557;28;20514;-76
2022/05/27 05:55:35;;;;;;;9.70;4.07;;;;;;;15.12;79.53;100866.44;5113183;28;20036;-77
2022/05/27 05:58:02;;;;;;;6.82;3.60;;;;;;;15.14;79.43;100869.78;5114495;28;20036;-76
2022/05/27 06:00:28;;;;;;;7.00;3.40;;;;;;;15.11;79.86;100866.63;5114401;28;20388;-75
2022/05/27 06:02:54;;;;;;;8.25;3.95;;;;;;;15.16;79.46;100866.91;5112962;28;20046;-77
2022/05/27 06:05:21;;;;;;;5.80;4.32;;;;;;;15.15;79.71;100870.63;5114382;28;20046;-77
2022/05/27 06:07:47;;;;;;;5.93;3.63;;;;;;;15.14;79.35;100875.16;5114455;28;20037;-77
2022/05/27 06:10:15;;;;;;;8.50;4.32;;;;;;;15.18;80.14;100870.22;5114850;28;20031;-76
2022/05/27 06:12:41;;;;;;;7.15;4.05;;;;;;;15.17;79.14;100871.25;5114280;28;20048;-76
2022/05/27 06:15:09;;;;;;;6.65;3.63;;;;;;;15.19;79.68;100882.63;5115111;28;20392;-76
2022/05/27 06:17:36;;;;;;;6.55;4.22;;;;;;;15.18;79.74;100879.09;5114135;28;20361;-76
2022/05/27 06:20:03;;;;;;;9.45;3.75;;;;;;;15.23;79.48;100877.72;5114879;28;20377;-77
2022/05/27 06:22:28;;;;;;;6.03;3.50;;;;;;;15.24;79.52;100874.84;5113480;28;20054;-79
2022/05/27 06:24:54;;;;;;;5.88;3.75;;;;;;;15.29;79.69;100871.59;5114576;28;20793;-76
2022/05/27 06:27:19;;;;;;;6.13;4.22;;;;;;;15.30;79.83;100860.66;5114883;28;20031;-77
2022/05/27 06:35:13;;;;;;;6.03;3.70;;;;;;;15.31;78.87;100859.66;5114454;28;20448;-78
2022/05/27 06:37:38;;;;;;;6.25;4.13;;;;;;;15.32;79.15;100865.84;5114068;28;20108;-76
2022/05/27 06:40:06;;;;;;;6.22;3.63;;;;;;;15.34;79.16;100859.28;5114113;28;20051;-78
2022/05/27 06:42:32;;;;;;;;;;;;;;;15.39;78.61;100862.25;5113652;28;20034;-78
2022/05/27 06:44:58;;;;;;;4.70;3.40;;;;;;;15.39;78.70;100870.28;5111214;28;19951;-76
2022/05/27 06:47:24;;;;;;;6.60;3.67;;;;;;;15.45;78.43;100874.91;5113265;28;20123;-75
2022/05/27 06:49:50;;;;;;;7.78;3.88;;;;;;;15.42;78.20;100877.94;5112104;28;20027;-74
2022/05/27 06:52:15;;;;;;;5.85;3.58;;;;;;;15.38;77.86;100875.81;5113327;28;20107;-76
2022/05/27 06:54:42;;;;;;;7.53;4.30;;;;;;;15.39;76.82;100872.13;5113510;28;20457;-76
2022/05/27 06:57:09;;;;;;;9.15;4.30;;;;;;;15.42;77.57;100875.25;5113288;28;20071;-74
2022/05/27 06:59:35;;;;;;;8.63;4.47;;;;;;;15.47;77.87;100874.69;5112065;28;20042;-75
2022/05/27 07:02:01;;;;;;;7.20;4.18;;;;;;;15.47;77.42;100880.91;5112788;28;20122;-73
2022/05/27 07:04:26;;;;;;;5.05;3.80;;;;;;;15.49;77.52;100875.34;5109076;27;20122;-75
2022/05/27 07:06:52;;;;;;;6.68;3.97;;;;;;;15.44;77.76;100885.81;5106208;28;20109;-76
2022/05/27 07:09:21;;;;;;;7.18;4.30;;;;;;;15.42;77.92;100877.13;5112594;28;20032;-75
2022/05/27 07:11:52;;;;;;;7.70;4.65;;;;;;;15.41;78.37;100892.41;5112258;28;20427;-75
2022/05/27 07:14:18;;;;;;;7.55;3.80;;;;;;;15.50;76.61;100881.53;5111478;28;20043;-75
2022/05/27 07:16:46;;;;;;;8.45;4.82;;;;;;;15.44;78.90;100889.31;5112471;28;20046;-77
2022/05/27 07:19:12;;;;;;;;;;;;;;;15.44;77.42;100897.38;5113305;28;20028;-75
2022/05/27 07:21:42;;;;;;;7.88;4.57;;;;;;;15.45;77.99;100885.63;5112143;28;19915;-76
2022/05/27 07:24:09;;;;;;;6.75;4.68;;;;;;;15.40;77.28;100882.69;5112012;28;20031;-75
2022/05/27 07:26:37;;;;;;;9.30;5.47;;;;;;;15.43;78.05;100884.16;5111356;28;20498;-76
2022/05/27 07:29:04;;;;;;;12.50;5.95;;;;;;;15.51;77.67;100880.50;5112377;28;20046;-76
2022/05/27 07:31:29;;;;;;;4.87;3.70;;;;;;;15.52;77.64;100874.09;5112256;28;20030;-75
2022/05/27 07:33:56;;;;;;;7.70;4.30;;;;;;;15.47;77.66;100878.22;5111677;28;20032;-74
2022/05/27 07:36:21;;;;;;;4.53;3.58;;;;;;;15.44;78.94;100878.59;5112061;28;20035;-76
2022/05/27 07:38:51;;;;;;;11.88;5.05;;;;;;;15.58;77.91;100881.41;5112195;28;20044;-75
2022/05/27 07:41:17;;;;;;;6.05;4.63;;;;;;;15.61;78.04;100867.63;5112023;28;20564;-75
2022/05/27 07:43:42;;;;;;;6.32;4.15;;;;;;;15.59;78.20;100867.81;5111278;28;20126;-75
2022/05/27 07:46:08;;;;;;;7.22;4.00;;;;;;;15.62;78.60;100872.81;5111738;28;20061;-75
2022/05/27 07:48:33;;;;;;;8.93;4.30;;;;;;;15.65;78.11;100867.09;5112142;28;20028;-74
2022/05/27 07:50:59;;;;;;;9.73;4.47;;;;;;;15.67;77.61;100873.09;5111901;28;20521;-73
2022/05/27 07:53:25;;;;;;;10.10;3.88;;;;;;;15.70;77.66;100869.19;5110129;28;20042;-74
2022/05/27 07:55:50;;;;;;;10.25;3.90;;;;;;;15.74;77.48;100871.28;5111376;28;20396;-73
2022/05/27 07:58:16;;;;;;;9.05;3.88;;;;;;;15.85;76.64;100871.81;5111939;28;20126;-74
2022/05/27 08:00:41;;;;;;;9.50;4.43;;;;;;;15.84;76.30;100881.69;5111768;28;20035;-74
2022/05/27 08:03:07;;;;;;;7.28;3.60;;;;;;;15.88;76.47;100876.78;5111420;28;20040;-73
2022/05/27 08:05:35;;;;;;;7.95;4.28;;;;;;;15.98;76.68;100877.31;5111502;28;20551;-73
2022/05/27 08:08:01;;;;;;;6.40;3.58;;;;;;;16.08;75.94;100876.97;5110788;28;20445;-74
2022/05/27 08:10:31;;;;;;;6.90;3.58;;;;;;;16.13;76.49;100877.22;5111855;28;20031;-74
2022/05/27 08:12:57;;;;;;;6.88;3.60;;;;;;;16.08;75.71;100885.84;5110964;28;20031;-72
2022/05/27 08:15:23;;;;;;;6.18;3.33;;;;;;;16.13;75.26;100871.84;5111812;28;20475;-75
2022/05/27 08:17:49;;;;;;;4.93;3.50;;;;;;;16.21;75.53;100883.28;5111726;28;20035;-74
2022/05/27 08:20:18;;;;;;;6.10;3.50;;;;;;;16.22;74.67;100887.63;5111590;28;20036;-73
2022/05/27 08:22:47;;;;;;;6.05;3.80;;;;;;;16.18;75.18;100875.63;5109904;28;20110;-74
2022/05/27 08:25:13;;;;;;;7.40;3.72;;;;;;;16.16;74.89;100874.13;5111527;28;20035;-74
2022/05/27 08:27:39;;;;;;;6.95;3.95;;;;;;;16.10;75.22;100870.34;5111576;28;20460;-75
2022/05/27 08:30:07;;;;;;;8.13;4.05;;;;;;;16.14;75.59;100876.19;5111470;28;20080;-75
2022/05/27 08:32:32;;;;;;;;;;;;;;;16.22;74.73;100873.34;5111420;28;20051;-75
2022/05/27 08:40:46;;;;;;;5.15;3.40;;;;;;;16.81;73.00;100878.31;5111405;28;20039;-75
2022/05/27 08:43:26;;;;;;;4.57;3.45;;;;;;;16.94;74.25;100883.78;5090174;28;20039;-75
2022/05/27 08:46:04;;;;;;;4.88;3.40;;;;;;;16.94;72.54;100882.94;5090924;28;20047;-74
2022/05/27 08:48:33;;;;;;;8.20;4.38;;;;;;;16.84;72.12;100887.88;5089731;28;20074;-77
2022/05/27 08:51:11;;;;;;;5.22;3.38;;;;;;;16.90;73.82;100882.53;5090896;28;20036;-75
2022/05/27 08:54:04;;;;;;;7.80;3.63;;;;;;;16.92;72.86;100891.22;5090940;28;20424;-75
2022/05/27 08:59:38;;;;;;;11.38;4.13;;;;;;;16.89;72.78;100891.63;5091110;28;20051;-74
2022/05/27 09:02:33;;;;;;;6.55;3.90;;;;;;;16.85;72.13;100892.22;5090734;28;20040;-75
2022/05/27 09:05:20;;;;;;;5.55;3.60;;;;;;;16.96;72.86;100889.81;5091062;28;20497;-74
2022/05/27 09:07:48;;;;;;;9.30;3.70;;;;;;;17.02;71.56;100880.94;5092062;28;20039;-74
2022/05/27 09:10:20;;;;;;;8.32;3.55;;;;;;;17.01;72.65;100884.63;5094802;28;20111;-76
2022/05/27 09:13:40;;;;;;;7.45;4.15;;;;;;;17.13;71.51;100884.06;5094616;28;20051;-75
2022/05/27 09:16:23;;;;;;;7.43;3.20;;;;;;;17.28;69.14;100890.16;5085266;28;20044;-76
2022/05/27 09:19:05;;;;;;;3.92;3.05;;;;;;;17.22;67.52;100886.41;5093427;28;20044;-76
2022/05/27 09:21:57;;;;;;;4.93;3.05;;;;;;;17.34;69.26;100881.25;5094439;28;20441;-75
2022/05/27 09:24:30;;;;;;;6.75;3.28;;;;;;;17.48;66.98;100877.59;5093430;28;20036;-75
2022/05/27 09:27:26;;;;;;;5.38;2.75;;;;;;;17.60;65.79;100873.28;5094659;28;20401;-76
2022/05/27 09:29:53;;;;;;;6.90;3.00;;;;;;;17.89;64.47;100857.78;5095302;28;20413;-74
2022/05/27 09:32:21;;;;;;;3.40;2.58;;;;;;;18.24;63.62;100860.25;5094222;28;20028;-76
2022/05/27 09:34:49;;;;;;;5.22;2.90;;;;;;;18.46;61.70;100856.31;5094455;28;20093;-75
2022/05/27 09:37:24;;;;;;;;;;;;;;;18.82;62.46;100849.59;5094783;28;20123;-74
2022/05/27 09:39:49;;;;;;;3.42;2.42;;;;;;;19.18;60.64;100854.44;5094909;28;20311;-74
2022/05/27 09:42:44;;;;;;;6.05;2.90;;;;;;;19.44;58.90;100845.38;5093953;28;20070;-74
2022/05/27 09:45:12;;;;;;;4.55;2.53;;;;;;;19.13;60.29;100855.09;5093102;28;20046;-75
2022/05/27 09:47:40;;;;;;;4.28;2.75;;;;;;;19.56;58.54;100840.94;5093043;28;20120;-74
2022/05/27 09:50:17;;;;;;;3.70;2.80;;;;;;;19.70;58.67;100847.94;5094227;28;20036;-73
2022/05/27 09:52:44;;;;;;;2.80;2.28;;;;;;;19.67;61.03;100853.75;5093903;28;20036;-75
2022/05/27 09:55:47;;;;;;;3.70;2.58;;;;;;;19.08;57.35;100865.69;5094192;28;20040;-75
2022/05/27 09:58:12;;;;;;;4.28;2.30;;;;;;;18.96;57.98;100864.69;5094099;28;20103;-74
2022/05/27 10:00:45;;;;;;;3.90;2.60;;;;;;;19.07;59.16;100864.03;5092744;28;20115;-75
2022/05/27 10:03:37;;;;;;;3.80;2.45;;;;;;;18.83;58.59;100867.44;5093748;28;20067;-76
2022/05/27 10:06:15;;;;;;;4.05;2.47;;;;;;;18.82;59.70;100861.22;5092577;28;20109;-75
2022/05/27 10:08:53;;;;;;;5.40;2.88;;;;;;;18.59;59.75;100856.28;5094002;28;20032;-75
2022/05/27 10:11:23;;;;;;;4.38;2.72;;;;;;;18.63;59.57;100849.41;5094327;28;20032;-75
2022/05/27 10:14:27;;;;;;;3.78;2.50;;;;;;;18.72;60.25;100846.53;5093880;28;20114;-75
2022/05/27 10:17:09;;;;;;;4.40;2.78;;;;;;;18.58;59.20;100848.38;5093755;28;20516;-74
2022/05/27 10:19:45;;;;;;;4.30;2.85;;;;;;;18.57;59.91;100844.03;5093687;28;20462;-74
2022/05/27 10:22:25;;;;;;;7.28;2.70;;;;;;;18.54;59.80;100848.00;5093212;28;20039;-75
2022/05/27 10:25:04;;;;;;;3.72;2.42;;;;;;;18.82;59.64;100844.19;5093607;28;20036;-73
2022/05/27 10:27:52;;;;;;;6.10;3.47;;;;;;;18.89;58.92;100845.00;5093459;28;20047;-75
2022/05/27 10:30:29;;;;;;;4.40;2.85;;;;;;;19.05;58.24;100838.31;5093780;28;20043;-76
2022/05/27 10:32:55;;;;;;;4.07;2.92;;;;;;;19.36;58.35;100824.81;5093125;28;20520;-75
2022/05/27 10:35:21;;;;;;;6.45;2.63;;;;;;;19.51;57.88;100827.25;5093192;28;20115;-74
2022/05/27 10:38:10;;;;;;;5.45;2.83;;;;;;;19.82;57.66;100831.81;5093281;28;20508;-74
2022/05/27 10:40:36;;;;;;;4.00;2.80;;;;;;;20.17;56.09;100832.16;5093169;28;20056;-75
2022/05/27 10:43:39;;;;;;;4.68;2.60;;;;;;;20.47;56.49;100831.47;5091534;28;20459;-76
2022/05/27 10:46:07;;;;;;;4.32;2.60;;;;;;;20.62;55.00;100818.44;5093312;28;20110;-75
2022/05/27 10:48:52;;;;;;;4.15;2.50;;;;;;;20.46;55.62;100819.00;5093121;28;20538;-74
2022/05/27 10:51:36;;;;;;;4.80;3.03;;;;;;;20.11;54.79;100821.41;5092918;28;20035;-75
2022/05/27 10:54:32;;;;;;;4.32;2.88;;;;;;;19.90;54.51;100812.66;5092873;28;20035;-74
2022/05/27 11:03:09;;;;;;;4.53;2.40;;;;;;;20.25;55.33;100821.06;5110672;28;20507;-74
2022/05/27 11:06:00;;;;;;;4.18;2.38;;;;;;;20.17;54.51;100812.41;5112870;28;20476;-75
2022/05/27 11:08:28;;;;;;;4.22;2.60;;;;;;;20.15;54.87;100815.34;5112788;28;20035;-74
2022/05/27 11:11:02;;;;;;;3.17;2.20;;;;;;;19.96;54.64;100808.25;5112695;28;20399;-74
2022/05/27 11:16:47;;;;;;;2.72;2.03;;;;;;;20.22;54.32;100808.00;5112693;28;20400;-74
2022/05/27 11:19:37;;;;;;;5.68;2.50;;;;;;;20.43;55.23;100806.72;5112669;28;20035;-75
2022/05/27 11:22:09;;;;;;;4.40;2.63;;;;;;;20.51;55.56;100805.63;5111479;28;20069;-75
2022/05/27 11:24:43;;;;;;;4.50;2.30;;;;;;;20.48;55.96;100801.50;5111163;28;20118;-74
2022/05/27 11:27:38;;;;;;;4.20;2.70;;;;;;;20.35;53.98;100801.63;5111656;28;20408;-75
2022/05/27 11:30:27;;;;;;;3.88;2.60;;;;;;;20.31;55.00;100789.59;5110471;28;20129;-75
2022/05/27 11:33:33;;;;;;;5.45;2.70;;;;;;;19.93;57.06;100804.09;5111424;28;20166;-74
2022/05/27 11:36:11;;;;;;;3.17;2.42;;;;;;;19.71;56.93;100792.00;5112373;28;20047;-74
2022/05/27 11:39:12;;;;;;;7.70;3.55;;;;;;;19.42;58.35;100798.81;5112285;28;20407;-74
2022/05/27 11:41:50;;;;;;;4.93;2.85;;;;;;;19.04;58.86;100805.09;5110209;28;20041;-74
2022/05/27 11:44:52;;;;;;;4.63;2.80;;;;;;;19.03;59.30;100813.38;5112242;28;20028;-71
2022/05/27 11:47:26;;;;;;;5.47;3.05;;;;;;;18.88;58.75;100816.38;5112354;28;20035;-73
2022/05/27 11:50:10;;;;;;;4.20;2.50;;;;;;;18.70;59.36;100815.16;5110837;28;20122;-74
2022/05/27 11:52:41;;;;;;;3.47;2.75;;;;;;;18.56;59.57;100818.09;5089419;28;20020;-73
2022/05/27 11:55:28;;;;;;;4.15;2.17;;;;;;;18.56;60.50;100812.69;5090171;28;20392;-73
2022/05/27 11:58:12;;;;;;;4.70;2.90;;;;;;;18.30;61.23;100810.88;5088614;28;20377;-73
2022/05/27 12:00:44;;;;;;;3.97;2.92;;;;;;;18.37;61.59;100803.63;5071817;28;20496;-76
2022/05/27 12:03:18;;;;;;;3.92;2.20;;;;;;;18.41;63.34;100804.84;5090617;28;20093;-75
2022/05/27 12:05:51;;;;;;;4.70;2.67;;;;;;;18.47;62.68;100808.59;5092012;28;20028;-75
2022/05/27 12:08:41;;;;;;;2.78;2.33;;;;;;;18.27;63.39;100812.16;5092189;28;20050;-77
2022/05/27 12:11:13;;;;;;;4.55;2.80;;;;;;;18.32;63.33;100804.25;5092490;28;20060;-77
2022/05/27 12:13:45;;;;;;;4.45;2.10;;;;;;;18.35;62.65;100800.31;5091996;28;20042;-76
2022/05/27 12:16:19;;;;;;;5.15;2.45;;;;;;;18.32;64.12;100806.97;5093101;28;20088;-77
2022/05/27 12:18:54;;;;;;;4.00;2.20;;;;;;;18.31;62.68;100796.38;5091911;28;20024;-76
2022/05/27 12:21:24;;;;;;;3.60;2.08;;;;;;;18.28;61.63;100797.63;5091759;28;20035;-77
2022/05/27 12:24:09;;;;;;;4.35;2.63;;;;;;;18.40;61.69;100800.50;5090518;28;20043;-77
2022/05/27 12:26:36;;;;;;;4.30;2.35;;;;;;;18.36;62.79;100801.97;5091728;28;20095;-76
2022/05/27 12:29:06;;;;;;;3.28;2.38;;;;;;;18.32;62.49;100811.50;5092133;28;20035;-76
2022/05/27 12:31:33;;;;;;;4.63;2.30;;;;;;;18.32;62.60;100798.00;5091750;28;20455;-76
2022/05/27 12:34:27;;;;;;;3.15;2.08;;;;;;;18.13;62.77;100808.66;5091456;28;20063;-76
2022/05/27 12:37:00;;;;;;;4.45;2.25;;;;;;;18.14;63.26;100815.69;5090132;28;20036;-76
2022/05/27 12:39:28;;;;;;;5.20;2.30;;;;;;;18.11;63.76;100813.41;5090290;28;20481;-76
2022/05/27 12:42:10;;;;;;;2.78;2.00;;;;;;;18.10;62.92;100817.13;5091142;28;20024;-77
2022/05/27 12:44:38;;;;;;;4.55;1.92;;;;;;;18.04;63.82;100817.97;5095553;28;20438;-76
2022/05/27 12:47:05;;;;;;;3.55;2.33;;;;;;;18.08;64.13;100819.22;5094265;28;20629;-77
2022/05/27 12:49:39;;;;;;;5.53;2.37;;;;;;;18.00;64.09;100802.44;5096305;28;20040;-75
2022/05/27 12:52:26;;;;;;;3.58;2.58;;;;;;;17.95;63.93;100805.75;5093728;28;20060;-77
2022/05/27 12:54:51;;;;;;;5.88;2.60;;;;;;;18.15;64.39;100801.16;5095498;28;20032;-77
2022/05/27 13:03:36;;;;;;;5.00;2.30;;;;;;;18.35;63.32;100800.31;5095732;28;20486;-76
2022/05/27 13:06:25;;;;;;;4.15;2.38;;;;;;;18.25;64.38;100799.91;5095261;28;20039;-76
2022/05/27 13:08:53;;;;;;;5.10;2.42;;;;;;;18.38;64.09;100806.09;5096120;28;20070;-77
2022/05/27 13:11:21;;;;;;;5.35;2.30;;;;;;;18.30;63.84;100797.41;5095366;28;20036;-77
2022/05/27 13:14:08;;;;;;;3.47;2.67;;;;;;;18.35;63.85;100795.75;5094066;28;20054;-78
2022/05/27 13:17:06;;;;;;;3.10;2.15;;;;;;;18.30;63.46;100792.00;5094969;28;20047;-78
2022/05/27 13:19:40;;;;;;;2.85;2.10;;;;;;;18.06;63.59;100802.44;5094882;28;20118;-74
2022/05/27 13:22:13;;;;;;;4.40;2.15;;;;;;;18.05;64.65;100800.75;5094333;28;20404;-73
2022/05/27 13:24:45;;;;;;;6.93;2.30;;;;;;;17.90;64.74;100802.84;5094755;28;20408;-74
2022/05/27 13:27:31;;;;;;;6.00;2.33;;;;;;;17.80;64.98;100797.03;5094518;28;20036;-75
2022/05/27 13:29:59;;;;;;;4.70;2.40;;;;;;;17.79;64.87;100800.75;5094745;28;20127;-75
2022/05/27 13:32:30;;;;;;;3.08;2.15;;;;;;;17.78;65.21;100805.31;5094423;28;20119;-73
2022/05/27 13:35:09;;;;;;;2.90;2.00;;;;;;;17.79;65.75;100798.06;5094898;28;20028;-74
2022/05/27 13:37:38;;;;;;;4.57;2.38;;;;;;;17.80;67.30;100802.41;5093513;28;20460;-75
2022/05/27 13:40:05;;;;;;;4.90;2.38;;;;;;;17.76;66.28;100795.81;5094717;28;20036;-75
2022/05/27 13:42:33;;;;;;;;;;;;;;;17.77;65.19;100797.47;5094585;28;20040;-74
2022/05/27 13:45:07;;;;;;;3.53;2.00;;;;;;;17.77;66.20;100794.75;5094439;28;20007;-75
2022/05/27 13:47:35;;;;;;;4.00;1.92;;;;;;;17.86;66.13;100798.91;5094346;28;20516;-74
2022/05/27 13:50:01;;;;;;;4.20;1.83;;;;;;;17.97;66.73;100792.06;5094305;28;20070;-74
2022/05/27 13:52:35;;;;;;;4.80;2.20;;;;;;;18.00;66.13;100800.56;5093992;28;20513;-76
2022/05/27 13:55:10;;;;;;;3.72;1.90;;;;;;;17.86;65.57;100796.19;5093814;28;20447;-74
2022/05/27 13:57:42;;;;;;;3.97;1.90;;;;;;;17.78;65.87;100785.63;5094240;28;20036;-75
2022/05/27 14:00:10;;;;;;;6.10;3.05;;;;;;;17.75;66.46;100794.97;5094179;28;20036;-75
2022/05/27 14:02:46;;;;;;;4.78;1.83;;;;;;;17.67;65.40;100784.38;5094084;28;20066;-75
2022/05/27 14:05:25;;;;;;;4.25;1.70;;;;;;;17.72;65.96;100791.84;5093995;28;20032;-76
2022/05/27 14:07:55;;;;;;;3.15;1.85;;;;;;;17.72;66.30;100789.16;5093915;28;20028;-73
2022/05/27 14:10:26;;;;;;;3.00;2.05;;;;;;;17.81;67.33;100791.47;5092561;28;20039;-74
2022/05/27 14:12:54;;;;;;;4.80;2.30;;;;;;;18.00;66.63;100791.66;5093814;28;20031;-74
2022/05/27 14:15:25;;;;;;;4.18;2.58;;;;;;;18.17;66.83;100788.28;5093679;28;20516;-73
2022/05/27 14:17:52;;;;;;;2.42;1.60;;;;;;;18.35;66.02;100786.81;5092599;28;20044;-74
2022/05/27 14:20:29;;;;;;;3.20;1.88;;;;;;;18.38;67.24;100787.22;5093601;28;20039;-73
2022/05/27 14:23:02;;;;;;;3.37;2.10;;;;;;;18.37;65.41;100788.25;5093190;28;20512;-74
2022/05/27 14:25:41;;;;;;;2.28;1.90;;;;;;;18.26;65.20;100780.00;5093526;28;20286;-73
2022/05/27 14:28:27;;;;;;;3.58;1.85;;;;;;;18.09;65.08;100780.44;5092307;28;20040;-74
2022/05/27 14:30:56;;;;;;;4.20;2.00;;;;;;;18.03;65.60;100775.06;5092212;28;20540;-73
2022/05/27 14:33:37;;;;;;;4.97;2.22;;;;;;;17.80;65.70;100779.03;5093118;28;20031;-74
2022/05/27 14:36:06;;;;;;;5.05;2.13;;;;;;;17.85;67.08;100781.91;5093135;28;20051;-74
2022/05/27 14:38:36;;;;;;;4.93;2.15;;;;;;;17.87;65.88;100773.63;5091972;28;20054;-73
2022/05/27 14:41:03;;;;;;;4.60;2.20;;;;;;;17.93;66.81;100778.19;5093203;28;20119;-74
2022/05/27 14:43:46;;;;;;;4.30;2.28;;;;;;;18.05;65.75;100772.97;5092968;28;20122;-74
2022/05/27 14:46:31;;;;;;;4.70;2.03;;;;;;;18.07;65.91;100770.91;5093091;28;20043;-74
2022/05/27 14:48:58;;;;;;;3.17;1.83;;;;;;;18.18;65.01;100760.28;5091696;28;20040;-74
2022/05/27 14:51:41;;;;;;;3.10;1.70;;;;;;;18.40;66.39;100749.28;5092915;28;20082;-74
2022/05/27 14:54:19;;;;;;;3.67;2.10;;;;;;;18.74;65.30;100750.81;5091489;28;20067;-74
2022/05/27 14:56:44;;;;;;;3.53;2.42;;;;;;;18.93;64.49;100747.19;5092763;28;20414;-74
2022/05/27 14:59:18;;;;;;;2.95;1.88;;;;;;;18.90;63.64;100736.00;5092756;28;20044;-74
2022/05/27 15:01:52;;;;;;;2.60;1.88;;;;;;;19.01;63.33;100739.88;5092443;28;20174;-74
2022/05/27 15:04:27;;;;;;;3.60;2.30;;;;;;;19.10;62.62;100733.19;5092730;28;20089;-73
2022/05/27 15:06:57;;;;;;;3.45;2.10;;;;;;;19.08;63.19;100730.69;5090542;28;20374;-75
2022/05/27 15:09:34;;;;;;;4.38;1.92;;;;;;;19.08;63.25;100735.28;5092487;28;20055;-74
2022/05/27 15:12:23;;;;;;;3.17;1.85;;;;;;;18.92;62.67;100737.44;5092314;28;20063;-75
2022/05/27 15:14:49;;;;;;;2.17;1.70;;;;;;;18.76;63.23;100726.31;5092508;28;20553;-75
2022/05/27 15:17:25;;;;;;;3.58;1.85;;;;;;;18.56;64.20;100738.00;5092709;28;20379;-74
2022/05/27 15:20:14;;;;;;;4.07;2.10;;;;;;;18.58;65.57;100741.31;5092380;28;20036;-75
2022/05/27 15:22:50;;;;;;;4.45;2.35;;;;;;;18.60;65.93;100738.41;5092172;28;20107;-74
2022/05/27 15:25:21;;;;;;;3.15;2.30;;;;;;;18.66;66.38;100737.56;5092409;28;20063;-74
2022/05/27 15:33:28;;;;;;;7.75;2.53;;;;;;;18.22;67.68;100747.25;5091946;28;20039;-75
2022/05/27 15:35:55;;;;;;;2.30;1.90;;;;;;;18.26;68.37;100734.19;5092099;28;20043;-75
2022/05/27 15:38:26;;;;;;;;;;;;;;;18.47;68.52;100735.75;5092624;28;20036;-75
2022/05/27 15:40:54;;;;;;;14.55;2.63;;;;;;;18.53;68.05;100727.66;5090871;28;19966;-75
2022/05/27 15:43:21;;;;;;;2.75;2.05;;;;;;;18.51;68.67;100727.00;5091922;28;20032;-75
2022/05/27 15:45:48;;;;;;;3.35;2.10;;;;;;;18.55;68.94;100727.41;5092403;28;20040;-74
2022/05/27 15:48:16;;;;;;;4.63;2.30;;;;;;;18.52;68.01;100730.53;5093492;28;20060;-74
2022/05/27 15:50:42;;;;;;;5.80;2.40;;;;;;;18.62;67.64;100725.53;5092705;28;20552;-76
2022/05/27 15:53:08;;;;;;;6.25;2.47;;;;;;;18.55;68.01;100713.94;5090574;28;20040;-76
2022/05/27 15:55:34;;;;;;;4.80;2.35;;;;;;;18.65;66.88;100712.44;5091859;28;20036;-77
2022/05/27 15:57:59;;;;;;;3.33;2.67;;;;;;;18.64;67.05;100709.94;5090628;28;20062;-76
2022/05/27 16:00:25;;;;;;;3.70;2.10;;;;;;;18.56;67.53;100716.41;5091787;28;20117;-76
2022/05/27 16:02:51;;;;;;;4.38;2.40;;;;;;;18.43;67.61;100716.47;5091588;28;20040;-76
2022/05/27 16:05:18;;;;;;;3.25;2.15;;;;;;;18.34;68.44;100715.06;5090563;28;20084;-76
2022/05/27 16:07:44;;;;;;;3.88;2.33;;;;;;;18.34;68.19;100712.34;5091929;28;20036;-76
2022/05/27 16:10:11;;;;;;;3.40;2.20;;;;;;;18.33;68.44;100713.41;5092106;28;20145;-76
2022/05/27 16:12:37;;;;;;;4.30;2.20;;;;;;;18.31;68.13;100707.38;5091716;28;20031;-76
2022/05/27 16:15:04;;;;;;;3.42;2.30;;;;;;;18.31;67.98;100712.78;5092137;28;20837;-76
2022/05/27 16:20:14;;;;;;;5.03;2.95;;;;;;;18.22;68.96;100705.97;5091830;28;20068;-76
2022/05/27 16:22:40;;;;;;;4.45;2.55;;;;;;;18.08;69.54;100703.31;5091644;28;20081;-77
2022/05/27 16:25:10;;;;;;;2.83;2.33;;;;;;;18.10;70.35;100706.63;5090561;28;20081;-76
2022/05/27 16:27:37;;;;;;;4.57;2.20;;;;;;;18.10;70.19;100698.53;5091517;28;20566;-75
2022/05/27 16:30:05;;;;;;;7.40;2.72;;;;;;;18.22;70.58;100697.88;5092007;28;20040;-76
2022/05/27 16:32:31;;;;;;;4.97;2.67;;;;;;;18.32;70.38;100703.63;5091248;28;20477;-76
2022/05/27 16:34:56;;;;;;;5.97;2.30;;;;;;;18.41;69.95;100687.03;5090275;28;20044;-76
2022/05/27 16:37:22;;;;;;;5.28;2.80;;;;;;;18.50;69.77;100684.91;5096912;28;20037;-77
2022/05/27 16:39:47;;;;;;;3.70;2.45;;;;;;;18.44;69.96;100696.53;5110815;28;20467;-76
2022/05/27 16:42:12;;;;;;;4.25;2.35;;;;;;;18.44;69.88;100683.06;5111490;28;20119;-76
2022/05/27 16:44:40;;;;;;;4.25;2.65;;;;;;;18.36;69.78;100673.34;5111975;28;20104;-78
2022/05/27 16:47:06;;;;;;;3.55;2.55;;;;;;;18.36;69.56;100683.31;5112534;28;20039;-77
2022/05/27 16:49:31;;;;;;;5.40;2.85;;;;;;;18.37;69.91;100666.06;5112444;28;20042;-76
2022/05/27 16:51:57;;;;;;;6.00;2.65;;;;;;;18.40;70.18;100668.34;5111383;28;20172;-77